Time;durP1;ratioP1;P1;durP2;ratioP2;P2;SDS_P1;SDS_P2;PMS_P1;PMS_P2;Temp;Humidity;BMP_temperature;BMP_pressure;BME280_temperature;BME280_humidity;BME280_pressure;Samples;Min_cycle;Max_cycle;Signal;HPM_P1;HPM_P2
2021/01/18 00:02:17;;;;;;;382.50;132.97;;;;;;;-12.70;61.70;101037.24;2094586;83;34070;-68
2021/01/18 00:05:19;;;;;;;417.53;149.00;;;;;;;-12.86;61.37;101039.76;2074324;83;30116;-71
2021/01/18 00:08:21;;;;;;;397.00;139.67;;;;;;;-13.06;61.40;101039.91;2101108;83;27862;-70
2021/01/18 00:11:23;;;;;;;410.27;147.30;;;;;;;-13.21;61.63;101045.96;2055023;85;28813;-68
2021/01/18 00:14:26;;;;;;;407.55;146.13;;;;;;;-13.29;61.76;101042.03;2100754;83;31186;-70
2021/01/18 00:17:28;;;;;;;410.50;140.92;;;;;;;-13.37;61.92;101051.89;2099071;83;33916;-67
2021/01/18 00:20:30;;;;;;;430.22;154.87;;;;;;;-13.36;61.99;101056.25;2082041;83;29258;-67
2021/01/18 00:23:32;;;;;;;411.70;146.95;;;;;;;-13.37;62.09;101048.02;2100431;83;27619;-67
2021/01/18 00:26:35;;;;;;;448.93;154.45;;;;;;;-13.37;62.20;101040.30;2081955;83;28820;-66
2021/01/18 00:29:37;;;;;;;427.88;149.35;;;;;;;-13.35;62.36;101044.27;2100662;83;32708;-65
2021/01/18 00:32:40;;;;;;;380.02;134.27;;;;;;;-13.31;62.47;101043.63;2100338;83;33229;-68
2021/01/18 00:35:42;;;;;;;377.75;133.72;;;;;;;-13.27;62.28;101038.27;2031246;85;29360;-69
2021/01/18 00:38:45;;;;;;;469.27;157.70;;;;;;;-13.36;62.14;101033.05;2046941;85;27805;-70
2021/01/18 00:41:47;;;;;;;407.38;143.25;;;;;;;-13.44;62.09;101044.23;2038071;86;29793;-69
2021/01/18 00:44:50;;;;;;;442.03;155.30;;;;;;;-13.47;62.19;101053.06;2086921;83;31087;-69
2021/01/18 00:47:55;;;;;;;431.90;155.90;;;;;;;-13.52;62.12;101049.34;2056454;85;33159;-67
2021/01/18 00:50:57;;;;;;;433.27;148.43;;;;;;;-13.57;62.06;101045.59;2066689;86;30173;-68
2021/01/18 00:53:59;;;;;;;436.23;152.93;;;;;;;-13.58;62.08;101045.52;2066829;86;27715;-67
2021/01/18 00:57:01;;;;;;;404.50;139.20;;;;;;;-13.66;62.01;101040.78;2074677;83;28889;-69
2021/01/18 01:00:08;;;;;;;370.60;134.35;;;;;;;-13.71;62.11;101047.33;2083108;84;31162;-69
2021/01/18 01:03:10;;;;;;;367.25;132.72;;;;;;;-13.74;62.32;101042.02;2089803;83;33356;-68
2021/01/18 01:06:15;;;;;;;382.63;134.83;;;;;;;-13.72;62.22;101034.38;2097821;84;30076;-69
2021/01/18 01:09:17;;;;;;;373.05;124.10;;;;;;;-13.72;62.36;101044.67;2088521;84;27670;-69
2021/01/18 01:12:22;;;;;;;391.33;134.83;;;;;;;-13.66;62.61;101043.77;2022693;85;29765;-69
2021/01/18 01:15:24;;;;;;;362.57;126.10;;;;;;;-13.55;62.62;101044.38;2104242;83;32013;-69
2021/01/18 01:18:27;;;;;;;368.70;129.75;;;;;;;-13.46;62.60;101039.38;2053688;86;33163;-69
2021/01/18 01:21:29;;;;;;;394.20;144.60;;;;;;;-13.40;62.49;101036.30;2048900;84;30031;-69
2021/01/18 01:24:31;;;;;;;371.05;125.30;;;;;;;-13.40;62.28;101035.02;2011755;88;27769;-68
2021/01/18 01:27:33;;;;;;;355.25;124.80;;;;;;;-13.37;62.20;101040.70;2075861;84;27994;-69
2021/01/18 01:30:36;;;;;;;320.97;111.32;;;;;;;-13.33;62.44;101029.38;2072855;84;32028;-70
2021/01/18 01:33:38;;;;;;;299.00;103.43;;;;;;;-13.25;62.39;101027.66;2062455;85;34049;-70
2021/01/18 01:36:43;;;;;;;308.93;109.20;;;;;;;-13.24;62.42;101022.58;2131087;82;29217;-69
2021/01/18 01:39:46;;;;;;;291.30;101.53;;;;;;;-13.20;62.39;101017.19;2104370;82;27619;-69
2021/01/18 01:42:50;;;;;;;303.67;102.63;;;;;;;-13.18;62.33;101017.79;2088422;85;29792;-69
2021/01/18 01:45:52;;;;;;;296.32;103.55;;;;;;;-13.15;62.31;101014.48;2088503;83;32120;-68
2021/01/18 01:48:55;;;;;;;303.93;101.17;;;;;;;-13.11;62.31;101016.83;2053779;85;34049;-69
2021/01/18 01:51:57;;;;;;;282.50;101.93;;;;;;;-13.06;62.14;101012.42;2088931;85;29167;-69
2021/01/18 01:55:02;;;;;;;267.55;92.00;;;;;;;-13.05;61.94;101004.30;2105109;83;27721;-68
2021/01/18 01:58:07;;;;;;;261.75;89.22;;;;;;;-13.06;61.97;101003.39;2124478;83;29761;-68
2021/01/18 02:01:10;;;;;;;260.88;92.85;;;;;;;-13.12;61.92;101009.52;2103440;82;31980;-69
2021/01/18 02:04:13;;;;;;;284.87;96.77;;;;;;;-13.18;61.89;101010.05;2122736;83;34052;-69
2021/01/18 02:07:22;;;;;;;277.80;92.12;;;;;;;-13.23;61.86;101008.02;2122445;83;30135;-69
2021/01/18 02:10:28;;;;;;;277.05;92.22;;;;;;;-13.21;62.13;101005.09;2124221;83;28168;-67
2021/01/18 02:13:35;;;;;;;300.07;98.23;;;;;;;-13.17;62.13;101007.06;2086921;85;28820;-69
2021/01/18 02:16:57;;;;;;;278.83;94.63;;;;;;;-13.12;62.18;101009.52;2251103;77;36759;-68
2021/01/18 02:20:33;;;;;;;300.43;99.55;;;;;;;-13.22;61.73;101005.89;2214317;80;27656;-69
2021/01/18 02:24:08;;;;;;;268.48;92.95;;;;;;;-13.14;61.79;101011.11;2179262;80;28793;-69
2021/01/18 02:27:55;;;;;;;290.65;92.70;;;;;;;-13.13;61.67;101007.31;2170186;80;32981;-68
2021/01/18 02:31:25;;;;;;;270.77;94.50;;;;;;;-13.11;61.65;101016.83;2202689;80;33110;-67
2021/01/18 02:34:59;;;;;;;288.80;94.85;;;;;;;-13.08;61.75;101008.89;2217421;80;29073;-66
2021/01/18 02:38:45;;;;;;;296.93;102.20;;;;;;;-13.06;61.54;101002.11;2217166;80;28226;-68
2021/01/18 02:41:58;;;;;;;;;;;;;;;-13.08;61.44;100999.87;2218455;80;29824;-67
2021/01/18 02:45:01;;;;;;;258.93;87.33;;;;;;;-13.13;61.43;101001.29;2217505;80;31208;-68
2021/01/18 02:48:04;;;;;;;271.70;93.87;;;;;;;-13.21;61.45;100996.98;2217372;80;33957;-66
2021/01/18 02:51:07;;;;;;;257.93;88.63;;;;;;;-13.19;61.65;100997.05;2160095;80;28952;-67
2021/01/18 02:54:09;;;;;;;253.05;86.15;;;;;;;-13.15;61.92;100993.45;2215621;80;27643;-68
2021/01/18 02:57:17;;;;;;;239.48;84.28;;;;;;;-13.17;61.63;100986.05;2191314;80;29667;-67
2021/01/18 03:00:26;;;;;;;275.20;91.07;;;;;;;-13.21;61.90;100990.53;2149957;81;31155;-69
2021/01/18 03:03:43;;;;;;;276.93;96.43;;;;;;;-13.17;61.85;100991.20;2181494;80;33107;-68
2021/01/18 03:07:10;;;;;;;253.63;88.13;;;;;;;-13.18;61.78;100986.85;2245731;77;36735;-67
2021/01/18 03:10:42;;;;;;;259.83;95.03;;;;;;;-13.15;61.77;100986.13;2246130;77;37206;-67
2021/01/18 03:13:58;;;;;;;266.43;94.70;;;;;;;-13.17;61.72;100988.63;2216995;80;27751;-68
2021/01/18 03:17:00;;;;;;;296.35;102.27;;;;;;;-13.11;61.81;100983.31;2209878;80;28800;-67
2021/01/18 03:20:04;;;;;;;289.77;101.07;;;;;;;-13.10;61.50;100976.97;2212516;80;32111;-68
2021/01/18 03:23:09;;;;;;;297.07;104.90;;;;;;;-13.17;61.66;100973.16;2216785;80;33100;-66
2021/01/18 03:26:12;;;;;;;274.45;95.85;;;;;;;-13.20;61.48;100979.81;2209720;80;28591;-68
2021/01/18 03:29:15;;;;;;;295.40;99.25;;;;;;;-13.29;61.68;100981.45;2161855;80;27716;-68
2021/01/18 03:32:18;;;;;;;279.32;97.92;;;;;;;-13.27;61.81;100982.44;2215886;80;29249;-67
2021/01/18 03:35:22;;;;;;;283.40;99.23;;;;;;;-13.35;61.47;100982.41;2184274;80;32153;-66
2021/01/18 03:38:24;;;;;;;280.45;98.07;;;;;;;-13.48;61.58;100980.83;2178196;80;33168;-67
2021/01/18 03:41:27;;;;;;;306.75;107.03;;;;;;;-13.52;61.61;100980.16;2214784;80;28888;-65
2021/01/18 03:44:29;;;;;;;296.15;101.00;;;;;;;-13.52;61.85;100980.16;2216995;80;27762;-65
2021/01/18 03:47:31;;;;;;;251.50;84.47;;;;;;;-13.51;62.14;100980.27;2216785;80;28824;-65
2021/01/18 03:50:34;;;;;;;245.57;87.03;;;;;;;-13.44;62.37;100977.23;2199714;80;31198;-65
2021/01/18 03:53:37;;;;;;;246.20;83.20;;;;;;;-13.43;62.35;100975.56;2181384;80;33074;-65
2021/01/18 03:56:40;;;;;;;247.37;82.83;;;;;;;-13.38;62.37;100970.62;2216667;80;28858;-65
2021/01/18 03:59:43;;;;;;;269.35;91.40;;;;;;;-13.39;62.29;100971.02;2217099;80;27763;-68
2021/01/18 04:02:46;;;;;;;274.05;95.40;;;;;;;-13.46;62.21;100963.78;2199726;80;28586;-67
2021/01/18 04:05:48;;;;;;;246.20;82.00;;;;;;;-13.45;62.26;100956.13;2178623;80;31590;-64
2021/01/18 04:08:51;;;;;;;239.68;81.92;;;;;;;-13.47;62.20;100950.41;2204536;80;34397;-69
2021/01/18 04:11:53;;;;;;;230.62;82.45;;;;;;;-13.58;62.27;100955.34;2224825;80;28866;-68
2021/01/18 04:14:55;;;;;;;254.77;85.50;;;;;;;-13.58;62.22;100953.64;2201583;80;27806;-68
2021/01/18 04:17:58;;;;;;;240.43;83.93;;;;;;;-13.63;62.17;100954.67;2223751;80;29221;-69
2021/01/18 04:21:00;;;;;;;230.90;77.42;;;;;;;-13.70;61.99;100947.36;2224127;80;31133;-65
2021/01/18 04:24:03;;;;;;;229.33;80.50;;;;;;;-13.73;62.05;100952.75;2186516;80;33128;-64
2021/01/18 04:27:09;;;;;;;264.38;86.65;;;;;;;-13.71;62.27;100954.59;2187182;80;28853;-68
2021/01/18 04:30:13;;;;;;;251.90;83.63;;;;;;;-13.64;62.41;100957.13;2213952;80;27608;-68
2021/01/18 04:33:15;;;;;;;260.40;87.25;;;;;;;-13.66;61.97;100957.47;2193520;80;29767;-68
2021/01/18 04:36:17;;;;;;;256.27;86.28;;;;;;;-13.65;62.19;100967.85;2197814;80;31264;-67
2021/01/18 04:39:20;;;;;;;253.17;83.80;;;;;;;-13.57;62.18;100965.73;2184333;81;33131;-67
2021/01/18 04:42:22;;;;;;;233.27;82.97;;;;;;;-13.57;62.00;100955.83;2205128;80;28850;-67
2021/01/18 04:45:27;;;;;;;238.40;84.52;;;;;;;-13.52;62.47;100964.31;2187278;80;27672;-68
2021/01/18 04:48:32;;;;;;;251.40;83.67;;;;;;;-13.44;62.86;100959.61;2209992;80;28796;-68
2021/01/18 04:51:52;;;;;;;235.80;79.25;;;;;;;-13.33;62.67;100966.22;2187030;80;32129;-67
2021/01/18 04:54:57;;;;;;;244.68;81.37;;;;;;;-13.29;62.77;100961.74;2223721;80;33119;-65
2021/01/18 04:58:18;;;;;;;224.85;75.52;;;;;;;-13.15;63.04;100961.22;2224020;80;28939;-68
2021/01/18 05:01:23;;;;;;;234.63;78.47;;;;;;;-13.04;63.07;100956.67;2217937;80;27745;-68
2021/01/18 05:04:28;;;;;;;232.75;78.10;;;;;;;-12.96;62.67;100953.65;2203730;80;28803;-67
2021/01/18 05:07:39;;;;;;;211.45;74.90;;;;;;;-12.99;62.49;100952.67;2143274;83;31143;-66
2021/01/18 05:10:42;;;;;;;211.82;73.70;;;;;;;-12.91;62.88;100949.64;2137065;81;33942;-66
2021/01/18 05:13:45;;;;;;;211.43;75.03;;;;;;;-12.87;62.79;100955.05;2155188;81;28949;-67
2021/01/18 05:16:54;;;;;;;219.40;73.33;;;;;;;-12.86;62.97;100952.96;2139905;81;27692;-67
2021/01/18 05:19:57;;;;;;;239.10;75.67;;;;;;;-12.79;63.16;100954.19;2136272;83;28876;-66
2021/01/18 05:23:07;;;;;;;212.40;77.47;;;;;;;-12.67;63.42;100953.56;2153848;81;32038;-68
2021/01/18 05:26:27;;;;;;;167.47;59.98;;;;;;;-12.54;63.68;100951.26;2172150;81;33126;-68
2021/01/18 05:29:31;;;;;;;210.35;72.95;;;;;;;-12.47;63.16;100944.73;2156392;81;28862;-68
2021/01/18 05:32:34;;;;;;;189.97;67.03;;;;;;;-12.42;63.41;100959.17;2122349;83;27698;-67
2021/01/18 05:35:46;;;;;;;220.80;74.53;;;;;;;-12.44;63.00;100946.58;2135724;83;28815;-68
2021/01/18 05:38:49;;;;;;;204.82;70.15;;;;;;;-12.41;63.27;100946.75;2137361;83;31998;-68
2021/01/18 05:41:53;;;;;;;194.90;67.17;;;;;;;-12.38;63.29;100952.08;2113164;82;33188;-67
2021/01/18 05:44:56;;;;;;;207.50;69.82;;;;;;;-12.33;63.41;100942.90;2102771;84;28873;-66
2021/01/18 05:48:00;;;;;;;188.07;69.07;;;;;;;-12.26;63.51;100951.86;2102461;84;27756;-67
2021/01/18 05:51:04;;;;;;;188.32;65.72;;;;;;;-12.19;63.34;100945.31;2102651;84;28808;-66
2021/01/18 05:54:12;;;;;;;204.43;70.78;;;;;;;-12.12;63.34;100947.02;2102648;84;32472;-65
2021/01/18 05:57:15;;;;;;;183.68;67.47;;;;;;;-12.05;63.75;100941.77;2102847;83;34287;-65
2021/01/18 06:00:38;;;;;;;205.45;70.00;;;;;;;-12.00;63.45;100927.78;2119458;83;28914;-65
2021/01/18 06:03:42;;;;;;;194.80;69.27;;;;;;;-11.89;64.05;100931.77;2135789;83;27921;-66
2021/01/18 06:07:02;;;;;;;190.05;67.80;;;;;;;-11.79;63.53;100933.13;2123563;83;29718;-68
2021/01/18 06:10:06;;;;;;;205.70;75.55;;;;;;;-11.76;63.57;100939.36;2121083;83;31131;-69
2021/01/18 06:13:27;;;;;;;210.72;72.80;;;;;;;-11.69;63.65;100930.61;2138237;83;36759;-68
2021/01/18 06:16:33;;;;;;;186.67;66.57;;;;;;;-11.66;63.44;100934.23;2138126;83;28925;-67
2021/01/18 06:19:36;;;;;;;188.68;67.37;;;;;;;-11.62;63.76;100924.53;2137842;83;27799;-67
2021/01/18 06:22:39;;;;;;;194.43;72.12;;;;;;;-11.55;63.46;100923.14;2136172;83;28867;-66
2021/01/18 06:25:41;;;;;;;210.63;71.33;;;;;;;-11.59;63.49;100925.12;2137042;82;31206;-68
2021/01/18 06:28:43;;;;;;;207.75;68.83;;;;;;;-11.57;63.51;100926.47;2138225;82;33098;-65
2021/01/18 06:31:46;;;;;;;190.07;66.45;;;;;;;-11.56;63.47;100926.95;2116812;82;28850;-67
2021/01/18 06:35:02;;;;;;;194.35;67.25;;;;;;;-11.56;63.32;100932.99;2138122;83;27610;-68
2021/01/18 06:38:09;;;;;;;198.50;67.70;;;;;;;-11.53;63.66;100937.45;2110674;82;28893;-66
2021/01/18 06:41:11;;;;;;;205.37;70.47;;;;;;;-11.51;63.27;100941.87;2138292;83;31148;-66
2021/01/18 06:44:14;;;;;;;197.07;66.67;;;;;;;-11.50;63.44;100951.41;2111271;83;33103;-64
2021/01/18 06:47:31;;;;;;;191.12;63.40;;;;;;;-11.54;63.29;100945.59;2104094;83;29693;-65
2021/01/18 06:50:39;;;;;;;192.68;66.85;;;;;;;-11.55;62.87;100943.82;2101675;84;27697;-65
2021/01/18 06:57:15;;;;;;;202.82;68.17;;;;;;;-11.77;63.26;100945.73;2069026;86;32071;-71
2021/01/18 07:00:19;;;;;;;189.80;66.57;;;;;;;-11.69;63.63;100939.66;2045259;85;34400;-69
2021/01/18 07:03:40;;;;;;;192.37;66.57;;;;;;;-11.65;63.63;100939.88;2064426;86;28864;-71
2021/01/18 07:06:48;;;;;;;195.10;71.55;;;;;;;-11.66;63.48;100935.94;2065962;86;27692;-65
2021/01/18 07:09:58;;;;;;;190.22;71.55;;;;;;;-11.68;63.56;100935.88;2065676;86;29300;-63
2021/01/18 07:13:02;;;;;;;202.60;70.65;;;;;;;-11.60;63.76;100941.44;2064689;86;31167;-64
2021/01/18 07:16:07;;;;;;;191.07;68.10;;;;;;;-11.52;63.57;100934.94;2043774;85;34035;-63
2021/01/18 07:19:10;;;;;;;176.45;65.25;;;;;;;-11.52;63.18;100931.47;2050742;86;29785;-63
2021/01/18 07:22:29;;;;;;;177.15;66.72;;;;;;;-11.52;63.38;100925.88;2065945;86;27887;-66
2021/01/18 07:25:38;;;;;;;180.78;67.35;;;;;;;-11.50;63.72;100929.86;2065297;86;28082;-65
2021/01/18 07:28:44;;;;;;;174.38;62.53;;;;;;;-11.40;63.74;100929.49;2068602;84;31209;-66
2021/01/18 07:31:50;;;;;;;183.70;64.17;;;;;;;-11.35;63.85;100934.49;2077559;84;33113;-64
2021/01/18 07:34:52;;;;;;;171.90;64.53;;;;;;;-11.31;63.67;100930.34;2104618;84;28907;-65
2021/01/18 07:38:06;;;;;;;178.10;62.88;;;;;;;-11.19;64.11;100926.19;2104864;83;27664;-65
2021/01/18 07:41:12;;;;;;;177.02;62.03;;;;;;;-11.09;63.82;100923.64;2103969;82;29628;-64
2021/01/18 07:44:35;;;;;;;183.52;63.73;;;;;;;-10.96;63.94;100919.53;2104012;84;27653;-64
2021/01/18 07:48:01;;;;;;;183.20;64.82;;;;;;;-10.84;64.12;100925.28;2096065;83;33994;-66
2021/01/18 07:51:04;;;;;;;180.42;63.65;;;;;;;-10.67;64.54;100934.66;2038995;87;29089;-64
2021/01/18 07:54:06;;;;;;;182.47;68.07;;;;;;;-10.45;64.35;100934.82;2084902;83;27793;-66
2021/01/18 07:57:29;;;;;;;187.82;64.80;;;;;;;-10.26;64.32;100935.23;2081588;84;29607;-67
2021/01/18 08:00:32;;;;;;;177.90;66.65;;;;;;;-10.11;64.57;100936.73;2095602;84;32147;-66
2021/01/18 08:03:35;;;;;;;187.10;67.03;;;;;;;-9.98;64.43;100935.16;2096388;84;34081;-65
2021/01/18 08:07:04;;;;;;;170.45;66.22;;;;;;;-9.86;64.60;100928.72;2081834;84;28062;-64
2021/01/18 08:10:09;;;;;;;192.43;67.72;;;;;;;-9.74;64.25;100927.08;2109670;84;27706;-63
2021/01/18 08:13:47;;;;;;;203.60;71.55;;;;;;;-9.72;63.92;100918.96;2100411;84;28998;-65
2021/01/18 08:16:49;;;;;;;184.60;67.82;;;;;;;-9.76;63.90;100902.40;2090469;84;31274;-65
2021/01/18 08:20:11;;;;;;;178.32;67.55;;;;;;;-9.69;64.36;100899.23;2096393;84;33132;-64
2021/01/18 08:23:43;;;;;;;180.42;64.42;;;;;;;-9.60;64.31;100905.64;2095453;84;29160;-66
2021/01/18 08:27:00;;;;;;;179.90;69.92;;;;;;;-9.51;64.17;100910.77;2096563;84;27702;-65
2021/01/18 08:30:19;;;;;;;186.18;72.80;;;;;;;-9.33;64.81;100909.77;2095717;84;29951;-61
2021/01/18 08:33:25;;;;;;;179.97;68.28;;;;;;;-9.08;64.88;100915.53;2095411;84;31743;-63
2021/01/18 08:36:33;;;;;;;194.17;70.25;;;;;;;-8.94;64.28;100913.92;2096173;84;32923;-63
2021/01/18 08:39:39;;;;;;;191.95;73.57;;;;;;;-8.85;64.11;100920.34;2095737;84;30295;-62
2021/01/18 08:42:43;;;;;;;201.30;77.42;;;;;;;-8.71;64.31;100908.33;2095752;84;27802;-61
2021/01/18 08:45:51;;;;;;;185.93;71.53;;;;;;;-8.57;64.28;100909.73;2096698;84;28816;-64
2021/01/18 08:49:33;;;;;;;178.35;70.87;;;;;;;-8.40;64.15;100909.02;2090416;84;32123;-62
2021/01/18 08:52:36;;;;;;;173.60;68.52;;;;;;;-8.22;63.94;100907.06;2096321;84;34090;-60
2021/01/18 08:55:40;;;;;;;202.07;75.72;;;;;;;-8.10;63.67;100908.37;2099022;84;30591;-64
2021/01/18 08:58:44;;;;;;;169.77;65.20;;;;;;;-8.00;63.39;100915.22;2118876;83;30187;-64
2021/01/18 09:01:59;;;;;;;217.95;81.28;;;;;;;-8.05;62.66;100909.86;2099533;83;32476;-65
2021/01/18 09:05:21;;;;;;;205.35;79.72;;;;;;;-8.01;63.48;100909.55;2104726;84;31155;-65
2021/01/18 09:08:26;;;;;;;192.47;75.70;;;;;;;-7.88;63.09;100918.25;2104757;84;34087;-65
2021/01/18 09:11:29;;;;;;;190.22;75.03;;;;;;;-7.89;62.97;100912.58;2104869;84;29065;-66
2021/01/18 09:14:32;;;;;;;197.72;77.30;;;;;;;-7.77;63.17;100910.83;2106642;83;27865;-64
2021/01/18 09:17:35;;;;;;;200.75;75.97;;;;;;;-7.60;63.49;100914.00;2104458;84;29005;-63
2021/01/18 09:20:41;;;;;;;198.95;78.33;;;;;;;-7.45;62.99;100911.48;2077846;85;31154;-63
2021/01/18 09:23:45;;;;;;;195.47;76.75;;;;;;;-7.38;62.89;100922.14;2076142;85;32898;-62
2021/01/18 09:26:47;;;;;;;211.43;83.12;;;;;;;-7.23;63.16;100917.84;2060746;85;29178;-61
2021/01/18 09:30:17;;;;;;;206.50;81.30;;;;;;;-7.17;62.89;100916.75;2104720;84;28152;-64
2021/01/18 09:33:20;;;;;;;200.03;78.57;;;;;;;-7.04;62.63;100914.14;2118812;83;28882;-64
2021/01/18 09:36:23;;;;;;;210.25;83.47;;;;;;;-6.94;62.81;100918.33;2111769;83;31142;-65
2021/01/18 09:39:25;;;;;;;238.22;96.80;;;;;;;-6.80;62.92;100913.12;2118661;83;33125;-67
2021/01/18 09:42:30;;;;;;;226.55;88.22;;;;;;;-6.67;62.88;100913.49;2104508;84;29217;-67
2021/01/18 09:45:34;;;;;;;230.40;90.75;;;;;;;-6.57;62.89;100911.22;2111205;83;27650;-64
2021/01/18 09:48:37;;;;;;;196.85;82.05;;;;;;;-6.45;62.90;100903.32;2110075;83;28816;-67
2021/01/18 09:51:40;;;;;;;201.05;85.55;;;;;;;-6.33;62.78;100892.34;2104765;84;31135;-62
2021/01/18 09:54:46;;;;;;;196.60;80.75;;;;;;;-6.28;62.83;100896.84;2099966;84;33119;-61
2021/01/18 09:58:14;;;;;;;198.95;84.50;;;;;;;-6.23;62.81;100889.18;2075094;84;29184;-63
2021/01/18 10:01:33;;;;;;;203.47;80.92;;;;;;;-6.12;62.95;100881.66;2107584;83;27729;-61
2021/01/18 10:04:36;;;;;;;210.68;83.35;;;;;;;-6.08;62.71;100881.31;2123189;83;28809;-63
2021/01/18 10:07:45;;;;;;;205.85;83.10;;;;;;;-5.92;63.00;100877.36;2123153;83;31130;-62
2021/01/18 10:10:50;;;;;;;208.87;81.78;;;;;;;-5.77;62.93;100867.76;2122389;83;33107;-64
2021/01/18 10:14:02;;;;;;;214.72;92.05;;;;;;;-5.65;62.93;100861.55;2106505;83;30284;-64
2021/01/18 10:17:08;;;;;;;202.68;80.38;;;;;;;-5.49;63.36;100857.17;2104626;84;27740;-63
2021/01/18 10:20:13;;;;;;;214.15;89.50;;;;;;;-5.36;62.31;100851.84;2105059;84;29858;-64
2021/01/18 10:23:16;;;;;;;207.77;88.03;;;;;;;-5.43;61.96;100853.83;2126136;83;31154;-63
2021/01/18 10:26:28;;;;;;;200.80;83.33;;;;;;;-5.39;62.29;100857.42;2138865;82;33109;-63
2021/01/18 10:29:31;;;;;;;205.40;89.58;;;;;;;-5.31;62.54;100857.61;2079743;84;30145;-64
2021/01/18 10:32:44;;;;;;;210.88;89.15;;;;;;;-5.11;62.77;100851.10;2088353;83;27797;-63
2021/01/18 10:35:51;;;;;;;221.87;92.57;;;;;;;-5.04;62.33;100847.80;2072990;85;29718;-64
2021/01/18 10:38:54;;;;;;;209.47;90.53;;;;;;;-4.94;62.86;100850.20;2073268;85;31695;-62
2021/01/18 10:42:17;;;;;;;236.00;95.75;;;;;;;-4.81;62.11;100847.45;2100448;83;33135;-63
2021/01/18 10:45:26;;;;;;;215.15;88.58;;;;;;;-4.76;62.33;100846.23;2108240;84;29169;-65
2021/01/18 10:48:33;;;;;;;236.07;93.92;;;;;;;-4.69;61.75;100838.96;2106934;83;27683;-65
2021/01/18 10:51:36;;;;;;;217.22;91.45;;;;;;;-4.75;61.94;100839.72;2108175;83;28823;-64
2021/01/18 10:54:40;;;;;;;210.30;92.22;;;;;;;-4.68;61.68;100849.88;2104324;83;31130;-63
2021/01/18 10:57:47;;;;;;;224.50;93.80;;;;;;;-4.62;62.11;100844.80;2105797;83;34996;-64
2021/01/18 11:00:50;;;;;;;226.37;92.88;;;;;;;-4.62;61.81;100834.34;2104896;83;29031;-64
2021/01/18 11:03:54;;;;;;;211.15;94.60;;;;;;;-4.66;61.83;100841.65;2108112;83;27862;-63
2021/01/18 11:06:58;;;;;;;214.55;89.87;;;;;;;-4.68;61.44;100836.81;2105536;83;28813;-62
2021/01/18 11:10:04;;;;;;;223.65;94.35;;;;;;;-4.76;61.61;100827.50;2100649;83;32107;-63
2021/01/18 11:13:12;;;;;;;221.68;96.22;;;;;;;-4.89;61.14;100818.53;2105466;83;33143;-63
2021/01/18 11:16:16;;;;;;;219.28;96.30;;;;;;;-5.00;61.22;100820.44;2102792;83;29175;-62
2021/01/18 11:19:23;;;;;;;192.05;82.42;;;;;;;-5.11;61.56;100819.76;2105197;83;28061;-63
2021/01/18 11:22:26;;;;;;;226.37;91.60;;;;;;;-5.22;61.37;100814.31;2104229;83;28823;-62
2021/01/18 11:25:30;;;;;;;232.15;93.05;;;;;;;-5.34;61.32;100810.98;2105537;83;31172;-62
2021/01/18 11:28:33;;;;;;;217.93;86.00;;;;;;;-5.37;61.53;100813.92;2105326;83;33133;-66
2021/01/18 11:31:35;;;;;;;228.90;94.35;;;;;;;-5.46;61.45;100808.09;2105752;83;29166;-61
2021/01/18 11:34:38;;;;;;;231.97;93.85;;;;;;;-5.39;62.42;100802.16;2104562;83;27752;-66
2021/01/18 11:37:43;;;;;;;223.35;96.35;;;;;;;-5.14;62.77;100797.91;2105536;83;28925;-64
2021/01/18 11:40:45;;;;;;;211.40;92.08;;;;;;;-4.94;62.67;100787.48;2107544;83;31170;-62
2021/01/18 11:43:50;;;;;;;241.57;100.75;;;;;;;-4.77;62.28;100783.05;2049677;84;32857;-62
2021/01/18 11:46:56;;;;;;;227.78;95.20;;;;;;;-4.58;62.81;100788.22;2103396;83;29627;-62
2021/01/18 11:50:04;;;;;;;245.07;104.03;;;;;;;-4.43;62.80;100784.59;2103389;83;27652;-62
2021/01/18 11:53:07;;;;;;;245.63;103.17;;;;;;;-4.26;62.28;100780.11;2104465;83;28826;-61
2021/01/18 11:56:32;;;;;;;227.80;95.97;;;;;;;-4.24;61.71;100782.77;2092389;83;32097;-61
2021/01/18 11:59:34;;;;;;;227.05;93.70;;;;;;;-4.17;62.45;100782.92;2086070;84;33136;-62
2021/01/18 12:02:37;;;;;;;213.60;92.85;;;;;;;-4.03;62.37;100778.36;2083454;83;29098;-61
2021/01/18 12:05:41;;;;;;;211.35;92.53;;;;;;;-3.95;62.20;100772.81;2080022;83;27812;-64
2021/01/18 12:08:45;;;;;;;218.35;95.77;;;;;;;-3.87;62.20;100763.38;2087639;83;32969;-61
2021/01/18 12:11:47;;;;;;;220.22;93.22;;;;;;;-3.75;62.36;100759.19;2087580;83;31164;-62
2021/01/18 12:14:50;;;;;;;218.25;92.78;;;;;;;-3.63;62.75;100751.52;2080338;84;33235;-62
2021/01/18 12:17:52;;;;;;;222.90;91.50;;;;;;;-3.51;62.55;100751.73;2084498;83;29230;-62
2021/01/18 12:20:55;;;;;;;219.70;90.47;;;;;;;-3.40;62.42;100744.05;2079290;83;27745;-61
2021/01/18 12:23:59;;;;;;;227.10;93.82;;;;;;;-3.30;62.82;100738.92;2077682;84;28819;-61
2021/01/18 12:27:03;;;;;;;219.57;89.45;;;;;;;-3.18;62.89;100736.91;2076789;84;31222;-61
2021/01/18 12:30:08;;;;;;;217.32;91.12;;;;;;;-3.12;62.41;100726.49;2093347;83;34000;-62
2021/01/18 12:33:10;;;;;;;217.62;93.25;;;;;;;-3.06;62.54;100727.45;2083570;83;29170;-61
2021/01/18 12:36:15;;;;;;;227.40;99.35;;;;;;;-3.12;62.04;100727.39;2090028;83;27736;-61
2021/01/18 12:39:18;;;;;;;227.55;95.57;;;;;;;-3.08;62.21;100718.72;2074779;84;28801;-61
2021/01/18 12:42:21;;;;;;;225.60;97.35;;;;;;;-3.01;62.87;100717.05;2127522;83;31154;-66
2021/01/18 12:45:24;;;;;;;217.65;90.22;;;;;;;-2.89;62.23;100717.61;2125999;83;33972;-62
2021/01/18 12:48:26;;;;;;;221.40;96.80;;;;;;;-2.88;62.21;100715.88;2123734;83;29153;-61
2021/01/18 12:51:29;;;;;;;208.72;91.35;;;;;;;-2.87;62.01;100717.20;2117210;82;27705;-62
2021/01/18 12:54:32;;;;;;;247.82;103.95;;;;;;;-2.87;62.25;100713.27;2115766;82;28822;-61
2021/01/18 12:57:34;;;;;;;219.15;93.92;;;;;;;-2.83;62.53;100707.20;2125901;82;31168;-61
2021/01/18 13:00:38;;;;;;;241.35;103.95;;;;;;;-2.76;62.26;100712.98;2127395;83;33120;-61
2021/01/18 13:03:41;;;;;;;233.90;96.45;;;;;;;-2.67;62.78;100708.69;2102536;83;29197;-62
2021/01/18 13:06:46;;;;;;;208.02;94.97;;;;;;;-2.68;62.20;100702.58;2111475;82;27677;-61
2021/01/18 13:09:49;;;;;;;213.87;97.75;;;;;;;-2.68;62.37;100703.89;2112916;82;28877;-61
2021/01/18 13:12:51;;;;;;;221.90;95.07;;;;;;;-2.69;62.49;100710.00;2123729;82;31211;-61
2021/01/18 13:15:55;;;;;;;211.80;92.80;;;;;;;-2.66;62.37;100705.21;2127452;83;33990;-60
2021/01/18 13:18:58;;;;;;;234.52;101.10;;;;;;;-2.72;62.32;100712.58;2125510;83;29169;-60
2021/01/18 13:22:01;;;;;;;224.02;96.85;;;;;;;-2.68;62.53;100719.63;2125730;83;28100;-61
2021/01/18 13:25:05;;;;;;;261.68;108.85;;;;;;;-2.67;62.70;100713.94;2127201;83;28827;-60
2021/01/18 13:28:11;;;;;;;230.22;100.80;;;;;;;-2.58;63.03;100713.16;2082132;84;31259;-60
2021/01/18 13:31:15;;;;;;;228.20;99.58;;;;;;;-2.58;62.31;100717.09;2124390;83;33552;-61
2021/01/18 13:34:17;;;;;;;227.28;97.45;;;;;;;-2.58;62.54;100714.47;2126181;83;30061;-60
2021/01/18 13:37:20;;;;;;;220.15;96.28;;;;;;;-2.54;63.02;100711.03;2127107;83;27675;-61
2021/01/18 13:40:28;;;;;;;215.35;90.72;;;;;;;-2.49;62.70;100709.34;2126678;83;29257;-61
2021/01/18 13:43:27;;;;;;;239.82;104.43;;;;;;;-2.56;62.14;100703.57;2127274;83;31160;-61
2021/01/18 13:46:30;;;;;;;219.53;95.60;;;;;;;-2.62;62.48;100701.77;2123471;83;33145;-60
2021/01/18 13:49:32;;;;;;;220.25;96.02;;;;;;;-2.60;62.97;100704.84;2123392;83;29175;-61
2021/01/18 13:52:35;;;;;;;223.93;94.03;;;;;;;-2.59;62.70;100707.05;2124213;83;27690;-60
2021/01/18 13:55:38;;;;;;;206.02;92.08;;;;;;;-2.58;63.05;100707.92;2125063;83;29715;-60
2021/01/18 13:58:40;;;;;;;206.57;85.75;;;;;;;-2.57;62.67;100713.20;2125468;83;31196;-61